WetterOnline ( https://www.wetteronline.de )

Wetter aktuell Remseck

Aktuelles Wetter: Schnarrenberg/Stuttgart (315m)

6-stündlich | Neueste Meldungen
Ortszeit Temperatur Wetter
Mo, 17.06. 2:00 17.0° C bedeckt
So, 16.06. 20:00 20.6° C wolkig
So, 16.06. 14:00 20.9° C bewölkt
So, 16.06. 8:00 14.7° C wolkig
So, 16.06. 2:00 13.6° C bewölkt
Sa, 15.06. 20:00 18.6° C wolkig
Sa, 15.06. 14:00 19.3° C leicht bewölkt
Sa, 15.06. 8:00 13.4° C wolkig
Ortszeit Temperatur Wetter
Mo, 17.06. 2:00 17.0° C bedeckt
Mo, 17.06. 1:40 16.8° C bedeckt
Mo, 17.06. 1:30 16.2° C wolkig
Mo, 17.06. 1:20 16.2° C wolkig
Mo, 17.06. 1:10 16.2° C bedeckt
Mo, 17.06. 1:00 16.7° C leichter Regen
Mo, 17.06. 0:50 16.7° C leichter Regen
Mo, 17.06. 0:30 17.1° C bedeckt
Mo, 17.06. 0:00 17.5° C bedeckt
So, 16.06. 23:30 18.0° C bedeckt
So, 16.06. 23:00 18.2° C bewölkt
Ortszeit Relative Feuchte Sichtweite
Mo, 17.06. 2:00 75% >70 km
So, 16.06. 20:00 52% >70 km
So, 16.06. 14:00 45% 60 km
So, 16.06. 8:00 71% 65 km
So, 16.06. 2:00 74% 65 km
Sa, 15.06. 20:00 46% >70 km
Sa, 15.06. 14:00 50% >70 km
Sa, 15.06. 8:00 96% 55 km
Ortszeit Relative Feuchte Sichtweite
Mo, 17.06. 2:00 75% >70 km
Mo, 17.06. 1:40 76% -
Mo, 17.06. 1:30 81% >70 km
Mo, 17.06. 1:20 81% -
Mo, 17.06. 1:10 81% -
Mo, 17.06. 1:00 77% 22 km
Mo, 17.06. 0:50 77% -
Mo, 17.06. 0:30 74% >70 km
Mo, 17.06. 0:00 69% >70 km
So, 16.06. 23:30 66% >70 km
So, 16.06. 23:00 64% >70 km
Ortszeit Niederschlagsmenge Niederschlagsart
Mo, 17.06. 2:00 0.3 l/m2 in 6 Std. Regen
So, 16.06. 20:00 0.1 l/m2 in 12 Std. Regen
So, 16.06. 14:00 0.0 l/m2 in 6 Std. -
So, 16.06. 8:00 0.1 l/m2 in 12 Std. Regen
So, 16.06. 2:00 0.0 l/m2 in 6 Std. -
Sa, 15.06. 20:00 0.1 l/m2 in 12 Std. -
Sa, 15.06. 14:00 0.1 l/m2 in 6 Std. Regen
Sa, 15.06. 8:00 9 l/m2 in 12 Std. Regen
Ortszeit Niederschlagsmenge Niederschlagsart
Mo, 17.06. 2:00 0.2 l/m2 in 1 Std. Regen
Mo, 17.06. 1:40 keine Meldung -
Mo, 17.06. 1:30 0.2 l/m2 in 30 Min Schneeregen
Mo, 17.06. 1:20 keine Meldung -
Mo, 17.06. 1:10 keine Meldung -
Mo, 17.06. 1:00 0.1 l/m2 in 1 Std. Regen
Mo, 17.06. 0:50 keine Meldung -
Mo, 17.06. 0:30 <0.05 l/m2 in 30 Min Schneeregen
Mo, 17.06. 0:00 <0.05 l/m2 in 1 Std. Regen
So, 16.06. 23:30 <0.05 l/m2 in 30 Min Schneeregen
So, 16.06. 23:00 <0.05 l/m2 in 1 Std. Regen
Ortszeit Stärke Spitze Richtung
km/h Bft. km/h Grad Sektor
Mo, 17.06. 2:00 7 2 29 190° S
So, 16.06. 20:00 4 1 32 280° W
So, 16.06. 14:00 17 3 39 260° W
So, 16.06. 8:00 6 1 20 240° SW
So, 16.06. 2:00 4 1 25 140° SO
Sa, 15.06. 20:00 11 2 43 260° W
Sa, 15.06. 14:00 18 3 47 280° W
Sa, 15.06. 8:00 11 2 29 150° SO
Ortszeit Stärke Spitze Richtung
km/h Bft. km/h Grad Sektor
Mo, 17.06. 2:00 7 2 14 190° S
Mo, 17.06. 1:40 11 2 - 180° S
Mo, 17.06. 1:30 6 1 13 220° SW
Mo, 17.06. 1:20 6 1 - 220° SW
Mo, 17.06. 1:10 7 2 - 200° S
Mo, 17.06. 1:00 7 2 14 230° SW
Mo, 17.06. 0:50 7 2 - 230° SW
Mo, 17.06. 0:30 7 2 14 200° S
Mo, 17.06. 0:00 6 1 20 230° SW
So, 16.06. 23:30 9 2 20 220° SW
So, 16.06. 23:00 9 2 22 190° S
Ortszeit Untergrenze Bedeckung Gattung
total tief tief mittel hoch
Mo, 17.06. 2:00 1500 m 8/8 8/8 - - -
So, 16.06. 20:00 1500 m 8/8 3/8 - - -
So, 16.06. 14:00 1800 m 7/8 7/8 - - -
So, 16.06. 8:00 2100 m 7/8 1/8 - - -
So, 16.06. 2:00 2700 m 7/8 7/8 - - -
Sa, 15.06. 20:00 6600 m 7/8 5/8 - - -
Sa, 15.06. 14:00 1380 m 2/8 2/8 - - -
Sa, 15.06. 8:00 180 m 8/8 3/8 - - -
Ortszeit Bedeckungsgrad in Achtel und Wolkenuntergrenze
Mo, 17.06. 2:00 2(1500m) 5(2100m) 8(2400m)
Mo, 17.06. 1:40 8
Mo, 17.06. 1:30 3(1500m) 8(3300m) 8(3900m)
Mo, 17.06. 1:20 3(1500m) 8(3300m) 8(3900m)
Mo, 17.06. 1:10 8
Mo, 17.06. 1:00 2(1380m) 7(1500m) 8(2100m)
Mo, 17.06. 0:50 2(1380m) 7(1500m) 8(2100m)
Mo, 17.06. 0:30 7(1800m) 8(2400m) 8(3300m)
Mo, 17.06. 0:00 1(1800m) 3(2100m) 8(2700m)
So, 16.06. 23:30 5(2100m) 8(2700m) 8(3900m)
So, 16.06. 23:00 7(2400m) 7(3000m) 8(3900m)
Ortszeit Luftdruck NN (hPa) Tendenz (hPa in 3 Std.)
Mo, 17.06. 2:00 1013 + 0,3
So, 16.06. 20:00 1010 + 0,9
So, 16.06. 14:00 1010 - 1,2
So, 16.06. 8:00 1012 + 0,5
So, 16.06. 2:00 1012 0,0
Sa, 15.06. 20:00 1010 + 0,6
Sa, 15.06. 14:00 1010 - 0,3
Sa, 15.06. 8:00 1009 + 1,6
Ortszeit Luftdruck NN (hPa) Tendenz (hPa in 3 Std.)
Mo, 17.06. 2:00 1013 + 0,3
Mo, 17.06. 1:40 1013 keine Meldung
Mo, 17.06. 1:30 1013 + 0,6
Mo, 17.06. 1:20 1013 keine Meldung
Mo, 17.06. 1:10 1013 keine Meldung
Mo, 17.06. 1:00 1013 + 1,3
Mo, 17.06. 0:50 1013 keine Meldung
Mo, 17.06. 0:30 1013 + 1,1
Mo, 17.06. 0:00 1013 + 1,8
So, 16.06. 23:30 1012 + 1,7
So, 16.06. 23:00 1012 + 1,9
Ortszeit Schneehöhe (cm)
Mo, 17.06. 2:00 0
So, 16.06. 20:00 0
So, 16.06. 14:00 0
So, 16.06. 8:00 0
So, 16.06. 2:00 0
Sa, 15.06. 20:00 0
Sa, 15.06. 14:00 0
Sa, 15.06. 8:00 0
Ortszeit Schneehöhe (cm)
Mo, 17.06. 2:00 0
Mo, 17.06. 1:40 -
Mo, 17.06. 1:30 0
Mo, 17.06. 1:20 0
Mo, 17.06. 1:10 -
Mo, 17.06. 1:00 0
Mo, 17.06. 0:50 0
Mo, 17.06. 0:30 0
Mo, 17.06. 0:00 0
So, 16.06. 23:30 0
So, 16.06. 23:00 0
Link zu dieser Seite / Seite empfehlen

Das Wetter in ...